• Join FlightAware (Why Join?)
  • Login
  • US Flag 
01:13PM EDT


 

Airport Tracker/Info


-or-


 

Live Flight TrackerFlight Track Log ✈ ASH3770 ✈ 18-Apr-2013 ✈ KIAD - KAUS

Flight Track Log - Related Links

Times and Time Zones

All times are in EDT time to prevent confusion due to time zone crossing. See the ASH3770 flight status page for this flight to view local times or setup timezone preferences in your user account.

Time Position Orientation Groundspeed Altitude Reporting Facility
EDT Latitude Longitude Course Direction KTS MPH feet Rate Location/Type
12:50PM 38.8833 -77.4667 288° West 197 227 2,300  Level Potomac TRACON
12:51PM 38.8333 -77.5167 218° Southwest 234 269 4,700 2,400 Climbing Potomac TRACON
12:52PM 38.8000 -77.5833 237° Southwest 240 276 7,100 2,400 Climbing Potomac TRACON
12:53PM 38.7667 -77.6500 237° Southwest 257 296 9,300 1,620 Climbing Potomac TRACON
12:54PM 38.7653 -77.7294 269° West 277 319 10,000 360 Climbing Washington Center
12:55PM 38.7775 -77.8525 277° West 356 410 10,000 660 Level Washington Center
12:56PM 38.8422 -78.1688 288° West  Level FlightAware Approximate
12:56PM 38.8022 -77.9811 284° West 369 425 11,400  Level Washington Center
12:57PM 38.8328 -78.1153 286° West 380 437 12,900 1,620 Climbing Washington Center
12:58PM 38.8528 -78.2492 281° West 386 444 14,700 1,860 Climbing Washington Center
12:59PM 38.8517 -78.3853 269° West 386 444 16,700 1,800 Climbing Washington Center
01:00PM 38.8506 -78.5239 269° West 391 450 18,400 1,800 Climbing Washington Center
01:01PM 38.8453 -78.6569 267° West 381 438 20,300 1,680 Climbing Washington Center
01:02PM 38.8272 -78.7894 260° West 381 438 21,800 1,440 Climbing Washington Center
01:03PM 38.8089 -78.9217 260° West 387 445 23,200 1,200 Climbing Washington Center
01:04PM 38.7883 -79.0594 259° West 387 445 24,300 1,140 Climbing Washington Center
01:05PM 38.7675 -79.1994 259° West 393 452 25,500 1,200 Climbing Washington Center
01:06PM 38.7458 -79.3608 260° West 413 475 26,800 1,140 Climbing Washington Center
01:07PM 38.7250 -79.4900 258° West 413 475 27,800 1,020 Climbing Washington Center
01:08PM 38.7039 -79.6300 259° West 413 475 28,900 960 Climbing Washington Center
01:09PM 38.6822 -79.7725 259° West 413 475 29,800 1,200 Climbing Washington Center
01:10PM 38.6558 -79.9278 258° West 413 475 31,300 1,320 Climbing Washington Center
01:11PM 38.6364 -80.0650 260° West 407 468 32,500 900 Climbing Washington Center
01:13PM 38.5989 -80.2711 257° West 393 452 33,700 540 Climbing Indianapolis Center
01:14PM 38.5786 -80.4036 259° West 394 453 34,000 120 Climbing Indianapolis Center
01:15PM 38.5539 -80.5528 258° West 413 475 34,000  Level Indianapolis Center
01:16PM 38.5297 -80.7033 258° West 430 495 34,000  Level Indianapolis Center
01:17PM 38.5047 -80.8572 258° West 440 506 34,000  Level Indianapolis Center
01:18PM 38.4783 -81.0147 258° West 450 518 34,000  Level Indianapolis Center
01:19PM 38.4528 -81.1714 258° West 450 518 34,000  Level Indianapolis Center
01:20PM 38.4197 -81.3597 257° West 450 518 34,000  Level Indianapolis Center
01:21PM 38.3928 -81.5169 258° West 449 517 34,000  Level Indianapolis Center
01:22PM 38.3661 -81.6744 258° West 450 518 34,000  Level Indianapolis Center
01:23PM 38.3339 -81.8281 255° West 447 514 34,000  Level Indianapolis Center
01:24PM 38.2914 -81.9783 250° West 450 518 34,000  Level Indianapolis Center
01:25PM 38.2475 -82.1253 249° West 445 512 34,000  Level Indianapolis Center
01:26PM 38.2075 -82.2753 251° West 447 514 34,000  Level Indianapolis Center
01:27PM 38.1658 -82.4236 250° West 445 512 34,000  Level Indianapolis Center
01:28PM 38.1194 -82.5828 250° West 447 514 34,000  Level Indianapolis Center
01:29PM 38.0769 -82.7314 250° West 449 517 34,000 240 Level Indianapolis Center
01:30PM 38.0342 -82.8792 250° West 448 516 34,500 540 Climbing Indianapolis Center
01:31PM 37.9922 -83.0258 250° West 445 512 35,200 660 Climbing Indianapolis Center
01:32PM 37.9494 -83.1700 249° West 439 505 35,900 360 Climbing Indianapolis Center
01:33PM 37.9003 -83.3364 250° West 434 499 36,000  Climbing Indianapolis Center
01:34PM 37.8578 -83.4797 249° West 436 502 36,000  Level Indianapolis Center
01:35PM 37.8153 -83.6222 249° West 434 499 36,000  Level Indianapolis Center
01:36PM 37.7731 -83.7647 249° West 434 499 36,000  Level Indianapolis Center
01:37PM 37.7303 -83.9047 249° West 430 495 36,000  Level Indianapolis Center
01:38PM 37.6881 -84.0458 249° West 429 494 36,000  Level Indianapolis Center
01:39PM 37.6436 -84.1875 248° West 432 497 36,000  Level Indianapolis Center
01:40PM 37.5942 -84.3536 249° West 434 499 36,000  Level Indianapolis Center
01:41PM 37.5508 -84.4925 249° West 429 494 36,000  Level Indianapolis Center
01:42PM 37.5069 -84.6347 249° West 433 498 36,000  Level Indianapolis Center
01:43PM 37.4633 -84.7767 249° West 433 498 36,000  Level Indianapolis Center
01:44PM 37.4186 -84.9158 248° West 431 496 36,000  Level Indianapolis Center
01:45PM 37.3758 -85.0561 249° West 431 496 36,000  Level Indianapolis Center
01:46PM 37.3311 -85.1953 248° West 430 495 36,000  Level Indianapolis Center
01:47PM 37.2881 -85.3339 249° West 425 489 36,000  Level Indianapolis Center
01:48PM 37.2361 -85.4958 248° West 429 494 36,000  Level Indianapolis Center
01:49PM 37.1922 -85.6389 249° West 429 494 36,000  Level Memphis Center
01:50PM 37.1472 -85.7767 248° West 437 503 36,000  Level Memphis Center
01:51PM 37.1025 -85.9172 248° West 437 503 36,000  Level Memphis Center
01:52PM 37.0572 -86.0522 247° West 437 503 36,000  Level Memphis Center
01:53PM 37.0119 -86.1925 248° West 437 503 36,000  Level Memphis Center
01:54PM 36.9722 -86.3167 248° West 437 503 36,000  Level Memphis Center
01:55PM 36.9225 -86.4514 245° Southwest 437 503 36,000  Level Memphis Center
01:56PM 36.8808 -86.5883 249° West 437 503 36,000  Level Memphis Center
01:57PM 36.8561 -86.7347 258° West 430 495 36,000  Level Memphis Center
01:58PM 36.8311 -86.8808 258° West 430 495 36,000  Level Memphis Center
01:59PM 36.8058 -87.0244 258° West 430 495 36,000  Level Memphis Center
02:00PM 36.7825 -87.1653 258° West 430 495 36,000  Level Memphis Center
02:01PM 36.7569 -87.3089 258° West 430 495 36,000  Level Memphis Center
02:02PM 36.6972 -87.4353 240° Southwest 419 482 36,000  Level Memphis Center
02:03PM 36.6272 -87.5517 233° Southwest 425 489 36,000  Level Memphis Center
02:04PM 36.5567 -87.6678 233° Southwest 425 489 36,000  Level Memphis Center
02:05PM 36.4861 -87.7836 233° Southwest 430 495 36,000  Level Memphis Center
02:06PM 36.4094 -87.9072 232° Southwest 421 484 36,000 300 Level Memphis Center
02:07PM 36.3408 -88.0228 234° Southwest 421 484 36,700 780 Climbing Memphis Center
02:08PM 36.2742 -88.1328 233° Southwest 413 475 37,600 600 Climbing Memphis Center
02:09PM 36.2111 -88.2322 232° Southwest 397 457 38,000 180 Climbing Memphis Center
02:10PM 36.1442 -88.3369 232° Southwest 391 450 38,000  Level Memphis Center
02:11PM 36.0772 -88.4489 234° Southwest 397 457 38,000  Level Memphis Center
02:12PM 36.0078 -88.5583 232° Southwest 402 463 38,000  Level Memphis Center
02:13PM 35.9386 -88.6675 232° Southwest 402 463 38,000  Level Memphis Center
02:14PM 35.8692 -88.7764 232° Southwest 402 463 38,000  Level Memphis Center
02:15PM 35.8036 -88.8828 233° Southwest 402 463 38,000  Level Memphis Center
02:16PM 35.7361 -88.9886 232° Southwest 402 463 38,000  Level Memphis Center
02:17PM 35.6847 -89.0714 233° Southwest 397 457 38,000  Level Memphis Center
02:18PM 35.6211 -89.1822 235° Southwest 380 437 38,000  Level Memphis Center
02:19PM 35.5594 -89.2800 232° Southwest 380 437 38,000  Level Memphis Center
02:20PM 35.4936 -89.3803 231° Southwest 375 432 38,000  Level Memphis Center
02:21PM 35.4339 -89.4806 234° Southwest 370 426 38,000  Level Memphis Center
02:22PM 35.3678 -89.5806 231° Southwest 375 432 38,000  Level Memphis Center
02:23PM 35.3081 -89.6803 234° Southwest 375 432 38,000  Level Memphis Center
02:24PM 35.2439 -89.7825 232° Southwest 375 432 38,000  Level Memphis Center
02:25PM 35.1794 -89.8819 232° Southwest 375 432 38,000  Level Memphis Center
02:26PM 35.1153 -89.9814 232° Southwest 375 432 38,000  Level Memphis Center
02:27PM 35.0447 -90.0908 232° Southwest 375 432 38,000  Level Memphis Center
02:28PM 34.9800 -90.1897 231° Southwest 370 426 38,000  Level Memphis Center
02:29PM 34.9156 -90.2911 232° Southwest 370 426 38,000  Level Memphis Center
02:30PM 34.8508 -90.3850 230° Southwest 375 432 38,000  Level Memphis Center
02:31PM 34.7861 -90.4836 231° Southwest 375 432 38,000  Level Memphis Center
02:32PM 34.7192 -90.5844 231° Southwest 375 432 38,000  Level Memphis Center
02:33PM 34.6564 -90.6828 232° Southwest 375 432 38,000  Level Memphis Center
02:34PM 34.5914 -90.7783 230° Southwest 375 432 38,000  Level Memphis Center
02:35PM 34.5242 -90.8814 232° Southwest 375 432 38,000  Level Memphis Center
02:36PM 34.4572 -90.9767 230° Southwest 380 437 38,000  Level Memphis Center
02:37PM 34.3919 -91.0794 232° Southwest 380 437 38,000  Level Memphis Center
02:38PM 34.3267 -91.1769 231° Southwest 375 432 38,000  Level Memphis Center
02:39PM 34.2675 -91.2644 231° Southwest 375 432 38,000  Level Memphis Center
02:40PM 34.2022 -91.3617 231° Southwest 375 432 38,000  Level Memphis Center
02:41PM 34.1367 -91.4564 230° Southwest 375 432 38,000  Level Memphis Center
02:42PM 34.0689 -91.5558 231° Southwest 375 432 38,000  Level Memphis Center
02:43PM 34.0033 -91.6550 231° Southwest 375 432 38,000  Level Memphis Center
02:44PM 33.9417 -91.7494 232° Southwest 375 432 38,000  Level Memphis Center
02:45PM 33.8758 -91.8483 231° Southwest 370 426 38,000  Level Memphis Center
02:46PM 33.8100 -91.9472 231° Southwest 375 432 38,000  Level Memphis Center
02:47PM 33.7708 -92.0589 247° West 375 432 38,000  Level Memphis Center
02:48PM 33.7431 -92.1308 245° Southwest 374 430 38,000  Level Fort Worth Center
02:49PM 33.7014 -92.2356 244° Southwest 368 423 38,000  Level Fort Worth Center
02:50PM 33.6600 -92.3453 246° West 363 418 38,000  Level Fort Worth Center
02:51PM 33.6206 -92.4522 246° West 363 418 38,000  Level Fort Worth Center
02:52PM 33.5808 -92.5592 246° West 363 418 38,000  Level Fort Worth Center
02:53PM 33.5369 -92.6689 244° Southwest 363 418 38,000  Level Fort Worth Center
02:54PM 33.4950 -92.7756 245° Southwest 363 418 38,000  Level Fort Worth Center
02:55PM 33.4550 -92.8822 246° West 363 418 38,000  Level Fort Worth Center
02:56PM 33.4133 -92.9939 246° West 363 418 38,000  Level Fort Worth Center
02:57PM 33.3711 -93.1006 245° Southwest 363 418 38,000  Level Fort Worth Center
02:58PM 33.3267 -93.2094 244° Southwest 363 418 38,000  Level Fort Worth Center
02:59PM 33.2844 -93.3183 245° Southwest 363 418 38,000  Level Fort Worth Center
03:00PM 33.2419 -93.4272 245° Southwest 363 418 38,000  Level Fort Worth Center
03:01PM 33.1975 -93.5383 244° Southwest 363 418 38,000  Level Fort Worth Center
03:02PM 33.1547 -93.6469 245° Southwest 363 418 38,000  Level Fort Worth Center
03:03PM 33.1100 -93.7578 244° Southwest 368 423 38,000  Level Fort Worth Center
03:04PM 33.0750 -93.8486 245° Southwest 368 423 38,000  Level Fort Worth Center
03:05PM 33.0283 -93.9694 245° Southwest 368 423 38,000  Level Fort Worth Center
03:06PM 32.9856 -94.0800 245° Southwest 368 423 38,000  Level Fort Worth Center
03:07PM 32.9403 -94.1856 243° Southwest 368 423 38,000  Level Fort Worth Center
03:08PM 32.8969 -94.2936 244° Southwest 368 423 38,000  Level Fort Worth Center
03:09PM 32.8558 -94.4039 246° West 368 423 38,000  Level Fort Worth Center
03:10PM 32.8125 -94.5067 243° Southwest 368 423 38,000  Level Fort Worth Center
03:11PM 32.7689 -94.6167 245° Southwest 368 423 38,000  Level Fort Worth Center
03:12PM 32.7253 -94.7242 244° Southwest 368 423 38,000  Level Fort Worth Center
03:13PM 32.6817 -94.8342 245° Southwest 368 423 38,000  Level Fort Worth Center
03:14PM 32.6400 -94.9414 245° Southwest 368 423 38,000  Level Fort Worth Center
03:15PM 32.5961 -95.0436 243° Southwest 363 418 38,000  Level Fort Worth Center
03:16PM 32.5519 -95.1458 243° Southwest 358 412 38,000  Level Fort Worth Center
03:17PM 32.5100 -95.2506 245° Southwest 358 412 38,000  Level Fort Worth Center
03:18PM 32.4722 -95.3597 248° West 358 412 38,000  Level Fort Worth Center
03:19PM 32.4300 -95.4639 244° Southwest 358 412 38,000  Level Fort Worth Center
03:20PM 32.3856 -95.5683 243° Southwest 358 412 38,000  Level Fort Worth Center
03:21PM 32.3433 -95.6700 244° Southwest 358 412 38,000  Level Fort Worth Center
03:22PM 32.2986 -95.7742 243° Southwest 358 412 38,000  Level Fort Worth Center
03:23PM 32.2583 -95.8756 245° Southwest 358 412 38,000  Level Fort Worth Center
03:24PM 32.2156 -95.9769 244° Southwest 351 404 38,000  Level Fort Worth Center
03:25PM 32.1731 -96.0831 245° Southwest 351 404 38,000  Level Fort Worth Center
03:26PM 32.1258 -96.1844 241° Southwest 351 404 38,000  Level Fort Worth Center
03:27PM 32.0853 -96.2878 245° Southwest 345 397 38,000  Level Fort Worth Center
03:28PM 32.0400 -96.3914 243° Southwest 345 397 38,000 -240 Level Fort Worth Center
03:29PM 31.9969 -96.4947 244° Southwest 345 397 37,600 -960 Descending Fort Worth Center
03:30PM 31.9497 -96.6031 243° Southwest 358 412 36,100 -1,560 Descending Fort Worth Center
03:31PM 31.9003 -96.7233 244° Southwest 363 418 34,500 -1,560 Descending Fort Worth Center
03:32PM 31.8550 -96.8289 243° Southwest 363 418 33,000 -1,500 Descending Fort Worth Center
03:33PM 31.8094 -96.9294 242° Southwest 363 418 31,500 -1,500 Descending Fort Worth Center
03:34PM 31.7661 -97.0369 245° Southwest 363 418 30,000 -1,560 Descending Fort Worth Center
03:36PM 31.6964 -97.1931 242° Southwest 337 388 27,400 -1,500 Descending Houston Center
03:37PM 31.6244 -97.2636 220° Southwest 365 420 26,000 -1,440 Descending Houston Center
03:38PM 31.5092 -97.2500 174° South 411 473 24,500 -1,500 Descending Houston Center
03:39PM 31.3908 -97.2325 173° South 421 484 23,000 -1,920 Descending Houston Center
03:40PM 31.2611 -97.2164 174° South 401 461 20,600 -1,440 Descending Houston Center
03:41PM 31.1625 -97.2278 186° South 361 415 20,000 -540 Descending Houston Center
03:42PM 31.0753 -97.2614 198° South 330 380 19,500 -1,380 Descending Houston Center
03:43PM 30.9897 -97.2953 199° South 326 375 17,200 -2,340 Descending Houston Center
03:44PM 30.8936 -97.3317 198° South 322 371 14,700 -2,280 Descending Houston Center
03:45PM 30.8133 -97.3619 198° South 309 356 12,500 -2,160 Descending Houston Center
03:46PM 30.7347 -97.3919 198° South 299 344 10,300 -1,440 Descending Houston Center
03:47PM 30.6633 -97.4194 198° South 277 319 9,600 -660 Descending Houston Center
03:48PM 30.5967 -97.4444 198° South 252 290 9,000 -660 Descending Houston Center
03:49PM 30.5339 -97.4692 199° South 242 278 8,300 -1,200 Descending Houston Center
03:50PM 30.4725 -97.4925 198° South 232 267 6,500 -1,140 Descending Houston Center
03:51PM 30.3939 -97.5044 187° South 248 285 6,000 -300 Descending Houston Center
03:52PM 30.3228 -97.4789 163° South 266 306 6,000  Level Houston Center
03:53PM 30.2514 -97.4781 179° South 257 296 6,000  Level Houston Center
03:54PM 30.1847 -97.4911 190° South 243 280 6,000 -240 Level Houston Center
03:55PM 30.1153 -97.5039 189° South 247 284 5,600 -780 Descending Houston Center
03:56PM 30.0483 -97.5181 190° South 251 289 4,500 -1,200 Descending Houston Center
03:57PM 29.9642 -97.5453 196° South 259 298 3,200 -960 Descending Houston Center
03:58PM 29.9717 -97.6006 279° West 206 237 2,500 -360 Descending Houston Center
03:59PM 30.0172 -97.6264 334° Northwest 184 212 2,500  Level Houston Center
04:01PM 30.0636 -97.6569 330° Northwest 189 217 2,500 -420 Level Houston Center
04:02PM 30.1186 -97.6558 North 184 212 1,700 -660 Descending Houston Center
04:03PM 30.1542 -97.6567 359° North 161 185 1,200 -540 Descending Houston Center